sensor_id;sensor_type;location;lat;lon;timestamp;P1;durP1;ratioP1;P2;durP2;ratioP2
69434;SDS011;56625;54.322;18.582;2023-05-14T00:01:32;10.60;;;3.90;;
69434;SDS011;56625;54.322;18.582;2023-05-14T00:03:59;8.20;;;3.60;;
69434;SDS011;56625;54.322;18.582;2023-05-14T00:06:27;12.00;;;4.10;;
69434;SDS011;56625;54.322;18.582;2023-05-14T00:08:56;7.80;;;4.10;;
69434;SDS011;56625;54.322;18.582;2023-05-14T00:11:23;7.50;;;3.70;;
69434;SDS011;56625;54.322;18.582;2023-05-14T00:13:51;7.90;;;3.60;;
69434;SDS011;56625;54.322;18.582;2023-05-14T00:16:19;9.20;;;4.20;;
69434;SDS011;56625;54.322;18.582;2023-05-14T00:18:47;12.60;;;4.40;;
69434;SDS011;56625;54.322;18.582;2023-05-14T00:21:15;9.30;;;4.50;;
69434;SDS011;56625;54.322;18.582;2023-05-14T00:23:44;9.40;;;4.10;;
69434;SDS011;56625;54.322;18.582;2023-05-14T00:26:11;8.80;;;3.90;;
69434;SDS011;56625;54.322;18.582;2023-05-14T00:28:40;8.70;;;4.30;;
69434;SDS011;56625;54.322;18.582;2023-05-14T00:31:07;10.30;;;4.20;;
69434;SDS011;56625;54.322;18.582;2023-05-14T00:33:35;7.60;;;4.10;;
69434;SDS011;56625;54.322;18.582;2023-05-14T00:36:03;11.00;;;4.40;;
69434;SDS011;56625;54.322;18.582;2023-05-14T00:38:32;10.10;;;4.60;;
69434;SDS011;56625;54.322;18.582;2023-05-14T00:41:00;8.70;;;4.30;;
69434;SDS011;56625;54.322;18.582;2023-05-14T00:43:27;9.30;;;4.40;;
69434;SDS011;56625;54.322;18.582;2023-05-14T00:45:55;12.60;;;4.70;;
69434;SDS011;56625;54.322;18.582;2023-05-14T00:48:24;9.90;;;4.60;;
69434;SDS011;56625;54.322;18.582;2023-05-14T00:50:53;10.80;;;4.60;;
69434;SDS011;56625;54.322;18.582;2023-05-14T00:53:21;9.50;;;4.10;;
69434;SDS011;56625;54.322;18.582;2023-05-14T00:55:49;10.50;;;4.40;;
69434;SDS011;56625;54.322;18.582;2023-05-14T00:58:17;10.70;;;4.40;;
69434;SDS011;56625;54.322;18.582;2023-05-14T01:00:46;10.40;;;4.00;;
69434;SDS011;56625;54.322;18.582;2023-05-14T01:03:14;9.70;;;4.00;;
69434;SDS011;56625;54.322;18.582;2023-05-14T01:05:57;9.90;;;4.90;;
69434;SDS011;56625;54.322;18.582;2023-05-14T01:09:12;9.80;;;4.50;;
69434;SDS011;56625;54.322;18.582;2023-05-14T01:12:07;10.50;;;4.60;;
69434;SDS011;56625;54.322;18.582;2023-05-14T01:14:53;10.90;;;4.40;;
69434;SDS011;56625;54.322;18.582;2023-05-14T01:17:28;9.90;;;4.50;;
69434;SDS011;56625;54.322;18.582;2023-05-14T01:20:01;8.60;;;4.40;;
69434;SDS011;56625;54.322;18.582;2023-05-14T01:22:30;9.90;;;4.60;;
69434;SDS011;56625;54.322;18.582;2023-05-14T01:24:58;9.30;;;4.40;;
69434;SDS011;56625;54.322;18.582;2023-05-14T01:27:35;10.90;;;4.40;;
69434;SDS011;56625;54.322;18.582;2023-05-14T01:30:33;9.40;;;4.00;;
69434;SDS011;56625;54.322;18.582;2023-05-14T01:33:10;12.10;;;4.80;;
69434;SDS011;56625;54.322;18.582;2023-05-14T01:35:42;11.60;;;4.70;;
69434;SDS011;56625;54.322;18.582;2023-05-14T01:38:12;12.20;;;4.90;;
69434;SDS011;56625;54.322;18.582;2023-05-14T01:40:44;12.90;;;5.30;;
69434;SDS011;56625;54.322;18.582;2023-05-14T01:43:14;11.00;;;4.50;;
69434;SDS011;56625;54.322;18.582;2023-05-14T01:45:43;10.90;;;4.50;;
69434;SDS011;56625;54.322;18.582;2023-05-14T01:48:11;11.30;;;4.70;;
69434;SDS011;56625;54.322;18.582;2023-05-14T01:50:39;9.60;;;4.70;;
69434;SDS011;56625;54.322;18.582;2023-05-14T01:53:07;8.90;;;4.60;;
69434;SDS011;56625;54.322;18.582;2023-05-14T01:55:35;9.30;;;4.60;;
69434;SDS011;56625;54.322;18.582;2023-05-14T01:58:03;8.80;;;4.80;;
69434;SDS011;56625;54.322;18.582;2023-05-14T02:00:31;10.30;;;5.40;;
69434;SDS011;56625;54.322;18.582;2023-05-14T02:02:58;10.50;;;4.90;;
69434;SDS011;56625;54.322;18.582;2023-05-14T02:05:27;12.30;;;4.90;;
69434;SDS011;56625;54.322;18.582;2023-05-14T02:07:54;10.50;;;4.50;;
69434;SDS011;56625;54.322;18.582;2023-05-14T02:10:22;10.20;;;5.10;;
69434;SDS011;56625;54.322;18.582;2023-05-14T02:12:50;9.10;;;4.60;;
69434;SDS011;56625;54.322;18.582;2023-05-14T02:15:18;12.20;;;4.90;;
69434;SDS011;56625;54.322;18.582;2023-05-14T02:17:46;9.30;;;4.50;;
69434;SDS011;56625;54.322;18.582;2023-05-14T02:20:14;10.40;;;5.00;;
69434;SDS011;56625;54.322;18.582;2023-05-14T02:22:42;12.10;;;5.40;;
69434;SDS011;56625;54.322;18.582;2023-05-14T02:25:12;10.20;;;5.10;;
69434;SDS011;56625;54.322;18.582;2023-05-14T02:27:39;10.80;;;4.80;;
69434;SDS011;56625;54.322;18.582;2023-05-14T02:30:08;11.90;;;5.10;;
69434;SDS011;56625;54.322;18.582;2023-05-14T02:32:37;9.20;;;4.80;;
69434;SDS011;56625;54.322;18.582;2023-05-14T02:35:07;12.10;;;5.00;;
69434;SDS011;56625;54.322;18.582;2023-05-14T02:37:35;10.70;;;5.00;;
69434;SDS011;56625;54.322;18.582;2023-05-14T02:40:03;15.00;;;5.70;;
69434;SDS011;56625;54.322;18.582;2023-05-14T02:42:31;11.60;;;5.50;;
69434;SDS011;56625;54.322;18.582;2023-05-14T02:44:59;10.50;;;5.30;;
69434;SDS011;56625;54.322;18.582;2023-05-14T02:47:27;9.40;;;5.10;;
69434;SDS011;56625;54.322;18.582;2023-05-14T02:49:55;13.60;;;5.80;;
69434;SDS011;56625;54.322;18.582;2023-05-14T02:52:23;11.90;;;5.70;;
69434;SDS011;56625;54.322;18.582;2023-05-14T02:54:51;11.20;;;5.70;;
69434;SDS011;56625;54.322;18.582;2023-05-14T02:57:18;13.00;;;5.60;;
69434;SDS011;56625;54.322;18.582;2023-05-14T02:59:47;13.70;;;5.90;;
69434;SDS011;56625;54.322;18.582;2023-05-14T03:02:16;11.50;;;5.80;;
69434;SDS011;56625;54.322;18.582;2023-05-14T03:04:44;13.60;;;5.70;;
69434;SDS011;56625;54.322;18.582;2023-05-14T03:07:13;13.70;;;5.70;;
69434;SDS011;56625;54.322;18.582;2023-05-14T03:09:41;10.20;;;5.70;;
69434;SDS011;56625;54.322;18.582;2023-05-14T03:12:08;12.20;;;5.70;;
69434;SDS011;56625;54.322;18.582;2023-05-14T03:14:36;11.80;;;6.00;;
69434;SDS011;56625;54.322;18.582;2023-05-14T03:17:04;11.80;;;5.90;;
69434;SDS011;56625;54.322;18.582;2023-05-14T03:19:32;13.20;;;6.70;;
69434;SDS011;56625;54.322;18.582;2023-05-14T03:22:00;10.30;;;5.50;;
69434;SDS011;56625;54.322;18.582;2023-05-14T03:24:28;10.30;;;5.50;;
69434;SDS011;56625;54.322;18.582;2023-05-14T03:26:56;11.00;;;5.00;;
69434;SDS011;56625;54.322;18.582;2023-05-14T03:29:23;11.30;;;5.20;;
69434;SDS011;56625;54.322;18.582;2023-05-14T03:31:51;13.20;;;5.70;;
69434;SDS011;56625;54.322;18.582;2023-05-14T03:34:20;12.20;;;5.20;;
69434;SDS011;56625;54.322;18.582;2023-05-14T03:36:49;10.90;;;5.10;;
69434;SDS011;56625;54.322;18.582;2023-05-14T03:39:16;10.90;;;5.40;;
69434;SDS011;56625;54.322;18.582;2023-05-14T03:41:46;9.20;;;5.00;;
69434;SDS011;56625;54.322;18.582;2023-05-14T03:44:14;12.10;;;5.30;;
69434;SDS011;56625;54.322;18.582;2023-05-14T03:46:43;10.60;;;5.20;;
69434;SDS011;56625;54.322;18.582;2023-05-14T03:49:10;11.80;;;4.90;;
69434;SDS011;56625;54.322;18.582;2023-05-14T03:51:38;10.80;;;5.20;;
69434;SDS011;56625;54.322;18.582;2023-05-14T03:54:07;11.10;;;4.90;;
69434;SDS011;56625;54.322;18.582;2023-05-14T03:56:36;10.80;;;5.20;;
69434;SDS011;56625;54.322;18.582;2023-05-14T03:59:03;11.50;;;5.10;;
69434;SDS011;56625;54.322;18.582;2023-05-14T04:01:31;10.40;;;4.80;;
69434;SDS011;56625;54.322;18.582;2023-05-14T04:04:02;11.00;;;4.90;;
69434;SDS011;56625;54.322;18.582;2023-05-14T04:06:31;11.30;;;5.40;;
69434;SDS011;56625;54.322;18.582;2023-05-14T04:09:00;10.00;;;4.90;;
69434;SDS011;56625;54.322;18.582;2023-05-14T04:11:28;13.00;;;5.00;;
69434;SDS011;56625;54.322;18.582;2023-05-14T04:13:56;12.00;;;5.10;;
69434;SDS011;56625;54.322;18.582;2023-05-14T04:16:24;10.50;;;5.20;;
69434;SDS011;56625;54.322;18.582;2023-05-14T04:18:52;14.10;;;5.70;;
69434;SDS011;56625;54.322;18.582;2023-05-14T04:21:20;11.90;;;5.30;;
69434;SDS011;56625;54.322;18.582;2023-05-14T04:23:48;10.40;;;4.90;;
69434;SDS011;56625;54.322;18.582;2023-05-14T04:26:17;11.00;;;5.40;;
69434;SDS011;56625;54.322;18.582;2023-05-14T04:28:45;12.30;;;5.30;;
69434;SDS011;56625;54.322;18.582;2023-05-14T04:31:12;10.90;;;5.30;;
69434;SDS011;56625;54.322;18.582;2023-05-14T04:33:42;11.80;;;5.50;;
69434;SDS011;56625;54.322;18.582;2023-05-14T04:36:09;9.60;;;5.00;;
69434;SDS011;56625;54.322;18.582;2023-05-14T04:38:37;10.60;;;5.30;;
69434;SDS011;56625;54.322;18.582;2023-05-14T04:41:05;9.50;;;5.10;;
69434;SDS011;56625;54.322;18.582;2023-05-14T04:43:33;9.60;;;5.10;;
69434;SDS011;56625;54.322;18.582;2023-05-14T04:46:01;11.90;;;5.10;;
69434;SDS011;56625;54.322;18.582;2023-05-14T04:48:29;12.30;;;5.10;;
69434;SDS011;56625;54.322;18.582;2023-05-14T04:50:57;10.60;;;5.20;;
69434;SDS011;56625;54.322;18.582;2023-05-14T04:53:25;11.00;;;5.20;;
69434;SDS011;56625;54.322;18.582;2023-05-14T04:55:53;11.80;;;5.30;;
69434;SDS011;56625;54.322;18.582;2023-05-14T04:58:21;12.40;;;5.10;;
69434;SDS011;56625;54.322;18.582;2023-05-14T05:00:50;12.80;;;5.40;;
69434;SDS011;56625;54.322;18.582;2023-05-14T05:03:18;9.00;;;5.10;;
69434;SDS011;56625;54.322;18.582;2023-05-14T05:05:46;11.40;;;5.40;;
69434;SDS011;56625;54.322;18.582;2023-05-14T05:08:14;12.10;;;5.80;;
69434;SDS011;56625;54.322;18.582;2023-05-14T05:10:42;10.70;;;5.50;;
69434;SDS011;56625;54.322;18.582;2023-05-14T05:13:10;9.60;;;5.00;;
69434;SDS011;56625;54.322;18.582;2023-05-14T05:15:38;10.20;;;5.60;;
69434;SDS011;56625;54.322;18.582;2023-05-14T05:18:05;11.70;;;5.40;;
69434;SDS011;56625;54.322;18.582;2023-05-14T05:20:33;10.20;;;5.20;;
69434;SDS011;56625;54.322;18.582;2023-05-14T05:23:01;10.80;;;5.00;;
69434;SDS011;56625;54.322;18.582;2023-05-14T05:25:30;9.80;;;5.10;;
69434;SDS011;56625;54.322;18.582;2023-05-14T05:27:58;8.50;;;4.50;;
69434;SDS011;56625;54.322;18.582;2023-05-14T05:30:26;11.10;;;4.90;;
69434;SDS011;56625;54.322;18.582;2023-05-14T05:32:54;9.30;;;4.90;;
69434;SDS011;56625;54.322;18.582;2023-05-14T05:35:24;10.00;;;4.60;;
69434;SDS011;56625;54.322;18.582;2023-05-14T05:37:52;11.90;;;4.60;;
69434;SDS011;56625;54.322;18.582;2023-05-14T05:40:20;11.30;;;4.80;;
69434;SDS011;56625;54.322;18.582;2023-05-14T05:42:48;11.00;;;4.60;;
69434;SDS011;56625;54.322;18.582;2023-05-14T05:45:16;9.30;;;4.40;;
69434;SDS011;56625;54.322;18.582;2023-05-14T05:47:43;9.80;;;4.60;;
69434;SDS011;56625;54.322;18.582;2023-05-14T05:50:12;10.80;;;4.30;;
69434;SDS011;56625;54.322;18.582;2023-05-14T05:52:41;9.40;;;4.90;;
69434;SDS011;56625;54.322;18.582;2023-05-14T05:55:09;10.90;;;5.10;;
69434;SDS011;56625;54.322;18.582;2023-05-14T05:57:37;8.60;;;4.50;;
69434;SDS011;56625;54.322;18.582;2023-05-14T06:00:05;9.80;;;4.50;;
69434;SDS011;56625;54.322;18.582;2023-05-14T06:02:40;9.20;;;4.70;;
69434;SDS011;56625;54.322;18.582;2023-05-14T06:05:09;9.40;;;4.50;;
69434;SDS011;56625;54.322;18.582;2023-05-14T06:07:41;9.90;;;4.50;;
69434;SDS011;56625;54.322;18.582;2023-05-14T06:10:09;9.40;;;4.60;;
69434;SDS011;56625;54.322;18.582;2023-05-14T06:12:37;8.30;;;4.70;;
69434;SDS011;56625;54.322;18.582;2023-05-14T06:15:06;11.40;;;4.70;;
69434;SDS011;56625;54.322;18.582;2023-05-14T06:17:34;11.30;;;4.70;;
69434;SDS011;56625;54.322;18.582;2023-05-14T06:20:02;8.60;;;4.50;;
69434;SDS011;56625;54.322;18.582;2023-05-14T06:22:32;9.00;;;4.70;;
69434;SDS011;56625;54.322;18.582;2023-05-14T06:25:00;9.70;;;4.60;;
69434;SDS011;56625;54.322;18.582;2023-05-14T06:27:28;10.90;;;5.30;;
69434;SDS011;56625;54.322;18.582;2023-05-14T06:29:57;11.30;;;5.10;;
69434;SDS011;56625;54.322;18.582;2023-05-14T06:32:24;9.70;;;4.70;;
69434;SDS011;56625;54.322;18.582;2023-05-14T06:34:52;10.50;;;4.70;;
69434;SDS011;56625;54.322;18.582;2023-05-14T06:37:20;8.90;;;4.60;;
69434;SDS011;56625;54.322;18.582;2023-05-14T06:39:48;8.10;;;4.50;;
69434;SDS011;56625;54.322;18.582;2023-05-14T06:42:19;11.20;;;4.90;;
69434;SDS011;56625;54.322;18.582;2023-05-14T06:44:46;10.20;;;4.30;;
69434;SDS011;56625;54.322;18.582;2023-05-14T06:47:14;9.40;;;4.40;;
69434;SDS011;56625;54.322;18.582;2023-05-14T06:49:42;10.30;;;4.30;;
69434;SDS011;56625;54.322;18.582;2023-05-14T06:52:10;11.00;;;4.30;;
69434;SDS011;56625;54.322;18.582;2023-05-14T06:54:38;10.00;;;4.60;;
69434;SDS011;56625;54.322;18.582;2023-05-14T06:57:06;10.50;;;4.50;;
69434;SDS011;56625;54.322;18.582;2023-05-14T06:59:33;8.90;;;4.30;;
69434;SDS011;56625;54.322;18.582;2023-05-14T07:02:02;12.60;;;4.80;;
69434;SDS011;56625;54.322;18.582;2023-05-14T07:04:30;9.20;;;4.50;;
69434;SDS011;56625;54.322;18.582;2023-05-14T07:06:58;10.80;;;5.00;;
69434;SDS011;56625;54.322;18.582;2023-05-14T07:09:26;9.60;;;4.90;;
69434;SDS011;56625;54.322;18.582;2023-05-14T07:11:54;13.60;;;4.50;;
69434;SDS011;56625;54.322;18.582;2023-05-14T07:14:22;11.40;;;4.70;;
69434;SDS011;56625;54.322;18.582;2023-05-14T07:16:49;13.00;;;4.90;;
69434;SDS011;56625;54.322;18.582;2023-05-14T07:19:17;12.10;;;4.00;;
69434;SDS011;56625;54.322;18.582;2023-05-14T07:21:45;8.20;;;4.10;;
69434;SDS011;56625;54.322;18.582;2023-05-14T07:24:13;9.60;;;4.80;;
69434;SDS011;56625;54.322;18.582;2023-05-14T07:26:41;9.30;;;4.20;;
69434;SDS011;56625;54.322;18.582;2023-05-14T07:29:08;12.10;;;4.60;;
69434;SDS011;56625;54.322;18.582;2023-05-14T07:31:36;10.50;;;4.70;;
69434;SDS011;56625;54.322;18.582;2023-05-14T07:34:04;8.70;;;4.40;;
69434;SDS011;56625;54.322;18.582;2023-05-14T07:36:32;8.90;;;4.70;;
69434;SDS011;56625;54.322;18.582;2023-05-14T07:39:00;10.30;;;4.70;;
69434;SDS011;56625;54.322;18.582;2023-05-14T07:41:28;8.50;;;4.70;;
69434;SDS011;56625;54.322;18.582;2023-05-14T07:43:56;10.50;;;4.30;;
69434;SDS011;56625;54.322;18.582;2023-05-14T07:46:25;10.90;;;4.10;;
69434;SDS011;56625;54.322;18.582;2023-05-14T07:48:53;9.10;;;4.20;;
69434;SDS011;56625;54.322;18.582;2023-05-14T07:51:21;10.30;;;4.30;;
69434;SDS011;56625;54.322;18.582;2023-05-14T07:53:49;9.40;;;4.00;;
69434;SDS011;56625;54.322;18.582;2023-05-14T07:56:17;9.90;;;4.40;;
69434;SDS011;56625;54.322;18.582;2023-05-14T07:58:45;7.60;;;4.40;;
69434;SDS011;56625;54.322;18.582;2023-05-14T08:01:13;10.10;;;4.10;;
69434;SDS011;56625;54.322;18.582;2023-05-14T08:03:41;11.30;;;4.30;;
69434;SDS011;56625;54.322;18.582;2023-05-14T08:06:09;7.50;;;4.20;;
69434;SDS011;56625;54.322;18.582;2023-05-14T08:08:38;10.10;;;4.20;;
69434;SDS011;56625;54.322;18.582;2023-05-14T08:11:06;10.50;;;4.50;;
69434;SDS011;56625;54.322;18.582;2023-05-14T08:13:34;9.10;;;5.30;;
69434;SDS011;56625;54.322;18.582;2023-05-14T08:16:02;7.60;;;3.90;;
69434;SDS011;56625;54.322;18.582;2023-05-14T08:18:30;10.80;;;4.30;;
69434;SDS011;56625;54.322;18.582;2023-05-14T08:20:58;7.40;;;4.10;;
69434;SDS011;56625;54.322;18.582;2023-05-14T08:23:28;8.70;;;4.00;;
69434;SDS011;56625;54.322;18.582;2023-05-14T08:25:56;8.10;;;3.70;;
69434;SDS011;56625;54.322;18.582;2023-05-14T08:28:25;8.30;;;4.00;;
69434;SDS011;56625;54.322;18.582;2023-05-14T08:30:53;8.50;;;4.10;;
69434;SDS011;56625;54.322;18.582;2023-05-14T08:33:21;8.30;;;4.20;;
69434;SDS011;56625;54.322;18.582;2023-05-14T08:35:53;8.20;;;4.00;;
69434;SDS011;56625;54.322;18.582;2023-05-14T08:38:21;7.70;;;3.80;;
69434;SDS011;56625;54.322;18.582;2023-05-14T08:40:55;8.40;;;4.10;;
69434;SDS011;56625;54.322;18.582;2023-05-14T08:43:26;8.50;;;3.70;;
69434;SDS011;56625;54.322;18.582;2023-05-14T08:46:23;7.80;;;3.20;;
69434;SDS011;56625;54.322;18.582;2023-05-14T08:48:56;7.10;;;4.10;;
69434;SDS011;56625;54.322;18.582;2023-05-14T08:51:31;7.60;;;3.40;;
69434;SDS011;56625;54.322;18.582;2023-05-14T08:54:04;7.30;;;3.70;;
69434;SDS011;56625;54.322;18.582;2023-05-14T08:56:32;9.40;;;3.70;;
69434;SDS011;56625;54.322;18.582;2023-05-14T08:59:00;9.40;;;4.00;;
69434;SDS011;56625;54.322;18.582;2023-05-14T09:01:28;8.10;;;2.90;;
69434;SDS011;56625;54.322;18.582;2023-05-14T09:03:56;6.80;;;3.50;;
69434;SDS011;56625;54.322;18.582;2023-05-14T09:06:28;9.80;;;3.30;;
69434;SDS011;56625;54.322;18.582;2023-05-14T09:08:57;8.00;;;3.30;;
69434;SDS011;56625;54.322;18.582;2023-05-14T09:11:25;10.20;;;3.50;;
69434;SDS011;56625;54.322;18.582;2023-05-14T09:13:53;10.00;;;3.10;;
69434;SDS011;56625;54.322;18.582;2023-05-14T09:16:21;8.20;;;3.10;;
69434;SDS011;56625;54.322;18.582;2023-05-14T09:18:53;8.10;;;3.10;;
69434;SDS011;56625;54.322;18.582;2023-05-14T09:21:22;6.90;;;2.90;;
69434;SDS011;56625;54.322;18.582;2023-05-14T09:23:52;7.80;;;2.90;;
69434;SDS011;56625;54.322;18.582;2023-05-14T09:26:24;7.50;;;3.00;;
69434;SDS011;56625;54.322;18.582;2023-05-14T09:28:54;6.90;;;3.10;;
69434;SDS011;56625;54.322;18.582;2023-05-14T09:31:23;5.90;;;2.90;;
69434;SDS011;56625;54.322;18.582;2023-05-14T09:33:51;5.60;;;2.60;;
69434;SDS011;56625;54.322;18.582;2023-05-14T09:36:19;7.20;;;3.10;;
69434;SDS011;56625;54.322;18.582;2023-05-14T09:38:47;8.60;;;3.40;;
69434;SDS011;56625;54.322;18.582;2023-05-14T09:41:15;6.00;;;2.90;;
69434;SDS011;56625;54.322;18.582;2023-05-14T09:43:43;6.70;;;3.20;;
69434;SDS011;56625;54.322;18.582;2023-05-14T09:46:11;6.40;;;3.00;;
69434;SDS011;56625;54.322;18.582;2023-05-14T09:48:39;8.50;;;3.00;;
69434;SDS011;56625;54.322;18.582;2023-05-14T09:51:08;11.50;;;3.30;;
69434;SDS011;56625;54.322;18.582;2023-05-14T09:53:37;8.10;;;3.10;;
69434;SDS011;56625;54.322;18.582;2023-05-14T09:56:07;7.30;;;2.90;;
69434;SDS011;56625;54.322;18.582;2023-05-14T09:58:35;6.80;;;3.00;;
69434;SDS011;56625;54.322;18.582;2023-05-14T10:01:04;7.90;;;3.30;;
69434;SDS011;56625;54.322;18.582;2023-05-14T10:03:33;7.70;;;3.30;;
69434;SDS011;56625;54.322;18.582;2023-05-14T10:06:04;6.90;;;3.10;;
69434;SDS011;56625;54.322;18.582;2023-05-14T10:08:33;6.50;;;3.50;;
69434;SDS011;56625;54.322;18.582;2023-05-14T10:11:12;9.20;;;3.00;;
69434;SDS011;56625;54.322;18.582;2023-05-14T10:13:49;7.00;;;2.90;;
69434;SDS011;56625;54.322;18.582;2023-05-14T10:16:27;6.00;;;2.70;;
69434;SDS011;56625;54.322;18.582;2023-05-14T10:19:07;6.80;;;2.60;;
69434;SDS011;56625;54.322;18.582;2023-05-14T10:21:44;6.40;;;3.10;;
69434;SDS011;56625;54.322;18.582;2023-05-14T10:24:17;6.80;;;3.10;;
69434;SDS011;56625;54.322;18.582;2023-05-14T10:26:46;6.20;;;3.40;;
69434;SDS011;56625;54.322;18.582;2023-05-14T10:29:15;6.70;;;3.60;;
69434;SDS011;56625;54.322;18.582;2023-05-14T10:31:53;8.40;;;3.70;;
69434;SDS011;56625;54.322;18.582;2023-05-14T10:34:40;6.70;;;3.70;;
69434;SDS011;56625;54.322;18.582;2023-05-14T10:39:53;9.30;;;4.20;;
69434;SDS011;56625;54.322;18.582;2023-05-14T10:42:26;8.70;;;3.90;;
69434;SDS011;56625;54.322;18.582;2023-05-14T10:44:57;8.50;;;3.90;;
69434;SDS011;56625;54.322;18.582;2023-05-14T10:47:28;8.00;;;3.30;;
69434;SDS011;56625;54.322;18.582;2023-05-14T10:49:58;9.20;;;4.00;;
69434;SDS011;56625;54.322;18.582;2023-05-14T10:52:28;14.50;;;5.40;;
69434;SDS011;56625;54.322;18.582;2023-05-14T10:55:01;12.40;;;5.80;;
69434;SDS011;56625;54.322;18.582;2023-05-14T10:57:37;8.30;;;4.50;;
69434;SDS011;56625;54.322;18.582;2023-05-14T11:00:06;8.20;;;4.50;;
69434;SDS011;56625;54.322;18.582;2023-05-14T11:02:37;7.80;;;4.10;;
69434;SDS011;56625;54.322;18.582;2023-05-14T11:05:08;8.50;;;4.70;;
69434;SDS011;56625;54.322;18.582;2023-05-14T11:07:44;8.40;;;5.00;;
69434;SDS011;56625;54.322;18.582;2023-05-14T11:10:16;11.10;;;4.80;;
69434;SDS011;56625;54.322;18.582;2023-05-14T11:12:47;9.00;;;4.90;;
69434;SDS011;56625;54.322;18.582;2023-05-14T11:15:19;12.50;;;5.30;;
69434;SDS011;56625;54.322;18.582;2023-05-14T11:17:50;11.30;;;5.20;;
69434;SDS011;56625;54.322;18.582;2023-05-14T11:20:20;13.90;;;5.70;;
69434;SDS011;56625;54.322;18.582;2023-05-14T11:22:48;9.30;;;4.80;;
69434;SDS011;56625;54.322;18.582;2023-05-14T11:25:18;10.50;;;5.30;;
69434;SDS011;56625;54.322;18.582;2023-05-14T11:27:48;11.10;;;5.60;;
69434;SDS011;56625;54.322;18.582;2023-05-14T11:30:18;9.80;;;5.20;;
69434;SDS011;56625;54.322;18.582;2023-05-14T11:32:48;9.70;;;4.70;;
69434;SDS011;56625;54.322;18.582;2023-05-14T11:35:17;8.10;;;4.80;;
69434;SDS011;56625;54.322;18.582;2023-05-14T11:37:49;10.00;;;4.50;;
69434;SDS011;56625;54.322;18.582;2023-05-14T11:40:21;9.00;;;4.40;;
69434;SDS011;56625;54.322;18.582;2023-05-14T11:42:52;9.10;;;4.20;;
69434;SDS011;56625;54.322;18.582;2023-05-14T11:45:24;8.50;;;4.40;;
69434;SDS011;56625;54.322;18.582;2023-05-14T11:47:54;9.00;;;4.10;;
69434;SDS011;56625;54.322;18.582;2023-05-14T11:50:22;8.70;;;4.60;;
69434;SDS011;56625;54.322;18.582;2023-05-14T11:52:55;9.80;;;4.50;;
69434;SDS011;56625;54.322;18.582;2023-05-14T11:55:23;9.30;;;4.40;;
69434;SDS011;56625;54.322;18.582;2023-05-14T11:57:52;10.40;;;4.30;;
69434;SDS011;56625;54.322;18.582;2023-05-14T12:00:20;8.40;;;4.00;;
69434;SDS011;56625;54.322;18.582;2023-05-14T12:02:51;9.40;;;4.20;;
69434;SDS011;56625;54.322;18.582;2023-05-14T12:05:19;9.60;;;4.10;;
69434;SDS011;56625;54.322;18.582;2023-05-14T12:07:47;9.30;;;4.40;;
69434;SDS011;56625;54.322;18.582;2023-05-14T12:10:15;11.20;;;4.80;;
69434;SDS011;56625;54.322;18.582;2023-05-14T12:12:44;8.80;;;4.10;;
69434;SDS011;56625;54.322;18.582;2023-05-14T12:15:15;9.30;;;4.80;;
69434;SDS011;56625;54.322;18.582;2023-05-14T12:17:49;11.40;;;5.30;;
69434;SDS011;56625;54.322;18.582;2023-05-14T12:20:18;11.40;;;5.10;;
69434;SDS011;56625;54.322;18.582;2023-05-14T12:22:46;11.30;;;5.70;;
69434;SDS011;56625;54.322;18.582;2023-05-14T12:25:14;10.60;;;5.60;;
69434;SDS011;56625;54.322;18.582;2023-05-14T12:27:43;9.70;;;5.20;;
69434;SDS011;56625;54.322;18.582;2023-05-14T12:30:12;10.00;;;5.50;;
69434;SDS011;56625;54.322;18.582;2023-05-14T12:32:44;9.70;;;4.80;;
69434;SDS011;56625;54.322;18.582;2023-05-14T12:35:14;11.70;;;5.00;;
69434;SDS011;56625;54.322;18.582;2023-05-14T12:37:43;11.30;;;4.90;;
69434;SDS011;56625;54.322;18.582;2023-05-14T12:40:11;7.70;;;4.60;;
69434;SDS011;56625;54.322;18.582;2023-05-14T12:42:39;10.00;;;4.70;;
69434;SDS011;56625;54.322;18.582;2023-05-14T12:45:07;8.60;;;4.40;;
69434;SDS011;56625;54.322;18.582;2023-05-14T12:47:36;10.10;;;4.70;;
69434;SDS011;56625;54.322;18.582;2023-05-14T12:50:05;8.60;;;3.90;;
69434;SDS011;56625;54.322;18.582;2023-05-14T12:52:34;11.20;;;4.60;;
69434;SDS011;56625;54.322;18.582;2023-05-14T12:55:06;8.40;;;4.40;;
69434;SDS011;56625;54.322;18.582;2023-05-14T12:57:37;9.60;;;4.90;;
69434;SDS011;56625;54.322;18.582;2023-05-14T13:00:07;10.40;;;4.90;;
69434;SDS011;56625;54.322;18.582;2023-05-14T13:02:40;11.40;;;4.80;;
69434;SDS011;56625;54.322;18.582;2023-05-14T13:05:11;9.60;;;4.70;;
69434;SDS011;56625;54.322;18.582;2023-05-14T13:07:39;10.90;;;4.70;;
69434;SDS011;56625;54.322;18.582;2023-05-14T13:10:08;8.90;;;4.80;;
69434;SDS011;56625;54.322;18.582;2023-05-14T13:12:36;9.50;;;4.30;;
69434;SDS011;56625;54.322;18.582;2023-05-14T13:15:05;10.70;;;4.40;;
69434;SDS011;56625;54.322;18.582;2023-05-14T13:17:34;10.10;;;4.40;;
69434;SDS011;56625;54.322;18.582;2023-05-14T13:20:03;9.40;;;4.40;;
69434;SDS011;56625;54.322;18.582;2023-05-14T13:22:32;10.00;;;4.30;;
69434;SDS011;56625;54.322;18.582;2023-05-14T13:25:00;9.50;;;4.60;;
69434;SDS011;56625;54.322;18.582;2023-05-14T13:27:28;9.00;;;4.60;;
69434;SDS011;56625;54.322;18.582;2023-05-14T13:29:57;9.30;;;4.50;;
69434;SDS011;56625;54.322;18.582;2023-05-14T13:32:25;9.50;;;4.30;;
69434;SDS011;56625;54.322;18.582;2023-05-14T13:34:52;10.40;;;4.60;;
69434;SDS011;56625;54.322;18.582;2023-05-14T13:37:20;10.30;;;4.50;;
69434;SDS011;56625;54.322;18.582;2023-05-14T13:39:48;8.80;;;3.70;;
69434;SDS011;56625;54.322;18.582;2023-05-14T13:42:18;9.40;;;3.50;;
69434;SDS011;56625;54.322;18.582;2023-05-14T13:44:46;8.10;;;3.70;;
69434;SDS011;56625;54.322;18.582;2023-05-14T13:47:13;9.20;;;3.20;;
69434;SDS011;56625;54.322;18.582;2023-05-14T13:49:41;10.10;;;3.20;;
69434;SDS011;56625;54.322;18.582;2023-05-14T13:52:09;6.80;;;3.10;;
69434;SDS011;56625;54.322;18.582;2023-05-14T13:54:37;6.40;;;2.50;;
69434;SDS011;56625;54.322;18.582;2023-05-14T13:57:05;8.30;;;2.80;;
69434;SDS011;56625;54.322;18.582;2023-05-14T13:59:33;8.80;;;2.60;;
69434;SDS011;56625;54.322;18.582;2023-05-14T14:02:02;7.90;;;2.80;;
69434;SDS011;56625;54.322;18.582;2023-05-14T14:04:30;6.20;;;2.40;;
69434;SDS011;56625;54.322;18.582;2023-05-14T14:06:58;6.20;;;2.40;;
69434;SDS011;56625;54.322;18.582;2023-05-14T14:09:26;5.50;;;2.20;;
69434;SDS011;56625;54.322;18.582;2023-05-14T14:11:54;8.20;;;2.60;;
69434;SDS011;56625;54.322;18.582;2023-05-14T14:14:22;8.80;;;2.20;;
69434;SDS011;56625;54.322;18.582;2023-05-14T14:16:50;6.40;;;2.20;;
69434;SDS011;56625;54.322;18.582;2023-05-14T14:19:18;6.00;;;2.60;;
69434;SDS011;56625;54.322;18.582;2023-05-14T14:21:46;5.60;;;2.20;;
69434;SDS011;56625;54.322;18.582;2023-05-14T14:24:14;6.20;;;2.10;;
69434;SDS011;56625;54.322;18.582;2023-05-14T14:26:42;5.30;;;2.10;;
69434;SDS011;56625;54.322;18.582;2023-05-14T14:29:09;7.40;;;2.10;;
69434;SDS011;56625;54.322;18.582;2023-05-14T14:31:37;6.00;;;2.50;;
69434;SDS011;56625;54.322;18.582;2023-05-14T14:34:05;7.30;;;3.10;;
69434;SDS011;56625;54.322;18.582;2023-05-14T14:36:33;7.50;;;2.90;;
69434;SDS011;56625;54.322;18.582;2023-05-14T14:39:01;8.00;;;2.90;;
69434;SDS011;56625;54.322;18.582;2023-05-14T14:41:29;9.90;;;3.00;;
69434;SDS011;56625;54.322;18.582;2023-05-14T14:43:57;8.30;;;3.20;;